Time;durP1;ratioP1;P1;durP2;ratioP2;P2;SDS_P1;SDS_P2;PMS_P1;PMS_P2;Temp;Humidity;BMP_temperature;BMP_pressure;BME280_temperature;BME280_humidity;BME280_pressure;Samples;Min_cycle;Max_cycle;Signal;HPM_P1;HPM_P2
2022/02/13 00:00:16;;;;;;;15.88;7.20;;;;;;;-0.94;98.39;101881.66;1736735;82;21654;-75
2022/02/13 00:03:21;;;;;;;15.30;6.95;;;;;;;-0.96;98.45;101879.05;1736921;82;21809;-83
2022/02/13 00:06:27;;;;;;;20.68;8.30;;;;;;;-0.94;98.51;101881.66;1736798;82;21539;-83
2022/02/13 00:09:32;;;;;;;16.80;7.60;;;;;;;-0.96;98.54;101876.84;1736571;82;21352;-75
2022/02/13 00:12:38;;;;;;;14.85;7.35;;;;;;;-0.98;98.59;101886.78;1735802;82;21308;-83
2022/02/13 00:15:44;;;;;;;17.35;8.18;;;;;;;-1.01;98.76;101885.08;1734227;82;21193;-83
2022/02/13 00:18:49;;;;;;;15.93;7.87;;;;;;;-1.03;98.89;101888.31;1735862;82;21280;-84
2022/02/13 00:21:57;;;;;;;13.68;7.70;;;;;;;-1.04;99.00;101899.97;1734165;82;21323;-76
2022/02/13 00:24:56;;;;;;;13.05;6.67;;;;;;;-1.07;99.09;101899.65;1735783;82;21826;-75
2022/02/13 00:28:03;;;;;;;22.70;9.45;;;;;;;-1.10;99.23;101890.84;1735208;82;21221;-75
2022/02/13 00:31:09;;;;;;;15.35;8.40;;;;;;;-1.11;99.41;101885.94;1735998;82;21303;-85
2022/02/13 00:34:13;;;;;;;15.23;8.03;;;;;;;-1.12;99.49;101894.94;1736062;82;21312;-76
2022/02/13 00:37:18;;;;;;;16.80;8.28;;;;;;;-1.13;99.61;101885.14;1734761;82;21572;-85
2022/02/13 00:40:24;;;;;;;16.10;8.15;;;;;;;-1.15;99.68;101899.55;1735999;82;21351;-84
2022/02/13 00:43:30;;;;;;;18.07;7.87;;;;;;;-1.17;99.71;101893.38;1736030;82;21800;-86
2022/02/13 00:46:36;;;;;;;18.07;8.50;;;;;;;-1.21;99.77;101891.75;1735821;82;21796;-85
2022/02/13 00:49:42;;;;;;;20.20;9.25;;;;;;;-1.24;99.85;101893.21;1735965;82;21162;-77
2022/02/13 00:52:48;;;;;;;16.23;9.08;;;;;;;-1.29;99.88;101894.27;1734887;82;21312;-77
2022/02/13 00:55:54;;;;;;;20.57;9.15;;;;;;;-1.33;99.85;101896.66;1735804;82;21284;-82
2022/02/13 00:59:00;;;;;;;20.48;9.65;;;;;;;-1.37;99.89;101895.50;1735826;82;21244;-76
2022/02/13 01:02:06;;;;;;;20.72;10.00;;;;;;;-1.41;100.00;101896.12;1735975;82;21202;-84
2022/02/13 01:05:12;;;;;;;19.48;9.78;;;;;;;-1.43;100.00;101900.66;1735977;82;21149;-77
2022/02/13 01:08:17;;;;;;;21.60;9.68;;;;;;;-1.44;100.00;101904.76;1736104;82;21212;-76
2022/02/13 01:11:22;;;;;;;15.98;8.80;;;;;;;-1.47;100.00;101904.87;1746905;82;21283;-85
2022/02/13 01:14:29;;;;;;;21.90;9.45;;;;;;;-1.50;100.00;101907.22;1709509;83;21189;-76
2022/02/13 01:17:34;;;;;;;21.60;9.40;;;;;;;-1.50;100.00;101914.40;1699413;84;21223;-84
2022/02/13 01:20:40;;;;;;;23.70;9.05;;;;;;;-1.52;100.00;101909.07;1748277;82;21283;-85
2022/02/13 01:23:49;;;;;;;21.20;8.60;;;;;;;-1.53;100.00;101912.70;1746760;82;21184;-76
2022/02/13 01:26:54;;;;;;;15.75;8.68;;;;;;;-1.52;100.00;101922.95;1748088;82;21860;-75
2022/02/13 01:30:00;;;;;;;20.77;9.05;;;;;;;-1.52;100.00;101938.59;1748112;82;21775;-84
2022/02/13 01:33:08;;;;;;;16.95;9.03;;;;;;;-1.53;100.00;101935.98;1748248;82;21880;-85
2022/02/13 01:36:13;;;;;;;17.17;8.30;;;;;;;-1.53;100.00;101931.48;1748134;82;21295;-76
2022/02/13 01:39:19;;;;;;;13.78;8.28;;;;;;;-1.52;100.00;101933.70;1748083;82;21730;-78
2022/02/13 01:42:24;;;;;;;13.72;8.55;;;;;;;-1.51;100.00;101938.13;1748097;82;21317;-84
2022/02/13 01:45:31;;;;;;;16.65;8.25;;;;;;;-1.52;100.00;101941.28;1748054;82;21176;-84
2022/02/13 01:48:35;;;;;;;20.15;8.45;;;;;;;-1.52;100.00;101938.59;1747966;82;21754;-84
2022/02/13 01:51:42;;;;;;;15.45;7.78;;;;;;;-1.52;100.00;101946.64;1747839;82;21865;-75
2022/02/13 01:54:47;;;;;;;16.37;7.25;;;;;;;-1.51;100.00;101949.73;1729266;82;21322;-84
2022/02/13 01:57:55;;;;;;;15.25;7.67;;;;;;;-1.51;100.00;101959.59;1715120;83;22208;-75
2022/02/13 02:01:00;;;;;;;16.67;7.55;;;;;;;-1.51;100.00;101958.25;1714864;83;21283;-75
2022/02/13 02:04:07;;;;;;;19.07;8.25;;;;;;;-1.51;99.90;101961.80;1715272;83;21277;-78
2022/02/13 02:07:12;;;;;;;16.25;7.87;;;;;;;-1.54;99.72;101959.27;1715005;83;21336;-75
2022/02/13 02:10:20;;;;;;;14.43;7.70;;;;;;;-1.55;99.74;101964.23;1732103;82;21126;-76
2022/02/13 02:13:25;;;;;;;20.12;9.25;;;;;;;-1.55;99.72;101958.39;1735115;82;21307;-84
2022/02/13 02:16:31;;;;;;;21.68;8.80;;;;;;;-1.54;99.69;101967.31;1735954;82;22067;-84
2022/02/13 02:19:38;;;;;;;23.52;9.05;;;;;;;-1.53;99.65;101965.50;1737815;82;21208;-78
2022/02/13 02:22:44;;;;;;;18.05;8.53;;;;;;;-1.53;99.56;101974.42;1736656;82;21217;-75
2022/02/13 02:25:51;;;;;;;17.62;7.75;;;;;;;-1.55;99.50;101970.94;1736374;82;21251;-84
2022/02/13 02:28:57;;;;;;;21.70;8.33;;;;;;;-1.55;99.42;101966.91;1737728;82;21271;-85
2022/02/13 02:32:02;;;;;;;19.42;7.53;;;;;;;-1.54;99.40;101963.28;1737694;82;21319;-76
2022/02/13 02:35:10;;;;;;;20.35;8.23;;;;;;;-1.56;99.36;101963.32;1737892;82;21161;-80
2022/02/13 02:38:16;;;;;;;13.53;8.40;;;;;;;-1.56;99.33;101979.89;1736332;82;21200;-85
2022/02/13 02:41:22;;;;;;;15.08;8.30;;;;;;;-1.57;99.32;101977.69;1737703;82;21338;-84
2022/02/13 02:44:27;;;;;;;20.62;8.35;;;;;;;-1.57;99.22;101979.49;1736863;82;21276;-84
2022/02/13 02:47:33;;;;;;;15.08;8.43;;;;;;;-1.59;99.07;101978.22;1736622;82;21306;-76
2022/02/13 02:50:39;;;;;;;17.52;8.53;;;;;;;-1.60;98.87;101973.80;1737650;82;21113;-77
2022/02/13 02:53:45;;;;;;;16.55;7.97;;;;;;;-1.62;98.70;101974.77;1737279;82;21306;-85
2022/02/13 02:56:51;;;;;;;15.60;7.35;;;;;;;-1.64;98.56;101982.02;1718084;82;21904;-77
2022/02/13 02:59:58;;;;;;;21.33;8.93;;;;;;;-1.68;98.39;101985.74;1737658;82;21306;-77
2022/02/13 03:03:04;;;;;;;17.70;8.68;;;;;;;-1.71;98.32;101981.82;1736632;82;21526;-86
2022/02/13 03:06:09;;;;;;;15.85;8.30;;;;;;;-1.71;98.26;101984.50;1737875;82;21323;-83
2022/02/13 03:09:15;;;;;;;16.90;8.08;;;;;;;-1.70;98.25;101990.27;1737714;82;21369;-83
2022/02/13 03:12:20;;;;;;;12.65;7.28;;;;;;;-1.69;98.23;102000.97;1737545;82;21371;-75
2022/02/13 03:15:25;;;;;;;13.35;7.40;;;;;;;-1.67;98.12;101999.56;1737440;82;21299;-75
2022/02/13 03:18:31;;;;;;;16.55;8.15;;;;;;;-1.66;97.98;102001.30;1737738;82;21145;-75
2022/02/13 03:21:37;;;;;;;16.00;7.60;;;;;;;-1.64;97.89;102010.19;1737646;82;21743;-84
2022/02/13 03:24:42;;;;;;;16.00;7.33;;;;;;;-1.63;97.74;102010.59;1737620;82;21311;-80
2022/02/13 03:27:49;;;;;;;20.40;8.10;;;;;;;-1.62;97.70;102008.31;1737816;82;21302;-82
2022/02/13 03:30:54;;;;;;;16.23;8.48;;;;;;;-1.61;97.67;102014.95;1737752;82;21641;-84
2022/02/13 03:33:59;;;;;;;14.35;7.03;;;;;;;-1.58;97.60;102009.95;1737810;82;21841;-75
2022/02/13 03:37:04;;;;;;;24.77;7.50;;;;;;;-1.55;97.37;102020.59;1737777;82;21300;-75
2022/02/13 03:40:09;;;;;;;11.65;6.58;;;;;;;-1.56;97.23;102018.34;1738048;82;21272;-75
2022/02/13 03:43:14;;;;;;;21.82;7.78;;;;;;;-1.56;96.97;102021.02;1737975;82;21319;-75
2022/02/13 03:46:20;;;;;;;17.85;7.83;;;;;;;-1.54;96.81;102019.64;1737907;82;21303;-83
2022/02/13 03:49:25;;;;;;;19.30;7.92;;;;;;;-1.53;96.76;102017.36;1737866;82;21648;-79
2022/02/13 03:52:30;;;;;;;16.50;7.37;;;;;;;-1.51;96.69;102024.88;1737826;82;22302;-75
2022/02/13 03:55:36;;;;;;;17.82;8.65;;;;;;;-1.50;96.40;102021.75;1737642;82;21362;-75
2022/02/13 03:58:41;;;;;;;16.00;8.33;;;;;;;-1.53;96.05;102021.39;1737642;82;21145;-75
2022/02/13 04:01:47;;;;;;;18.02;8.75;;;;;;;-1.55;95.77;102024.61;1737473;82;21750;-75
2022/02/13 04:04:57;;;;;;;14.28;8.45;;;;;;;-1.60;95.53;102024.78;1737749;82;21153;-78
2022/02/13 04:08:02;;;;;;;14.35;8.60;;;;;;;-1.63;95.58;102029.38;1737777;82;21343;-74
2022/02/13 04:11:09;;;;;;;18.65;9.55;;;;;;;-1.63;95.54;102031.59;1736078;82;21149;-84
2022/02/13 04:14:17;;;;;;;18.10;8.93;;;;;;;-1.62;95.58;102029.78;1737773;82;21271;-84
2022/02/13 04:17:23;;;;;;;17.55;9.13;;;;;;;-1.60;95.64;102027.90;1737493;82;21361;-75
2022/02/13 04:20:22;;;;;;;18.57;8.83;;;;;;;-1.59;95.51;102031.02;1737665;82;21157;-75
2022/02/13 04:23:31;;;;;;;21.05;10.05;;;;;;;-1.62;95.26;102028.44;1736320;82;21330;-75
2022/02/13 04:26:37;;;;;;;19.40;9.80;;;;;;;-1.65;95.19;102029.87;1736559;82;21359;-76
2022/02/13 04:29:44;;;;;;;18.37;10.43;;;;;;;-1.72;95.05;102032.39;1737826;82;21181;-76
2022/02/13 04:32:53;;;;;;;16.52;8.93;;;;;;;-1.80;95.13;102032.66;1737075;82;21591;-85
2022/02/13 04:35:59;;;;;;;19.40;10.43;;;;;;;-1.82;95.30;102032.72;1736390;82;21338;-84
2022/02/13 04:39:05;;;;;;;17.67;9.70;;;;;;;-1.86;95.25;102028.87;1736303;82;21228;-76
2022/02/13 04:42:10;;;;;;;16.07;8.38;;;;;;;-1.90;95.17;102030.77;1736235;82;21318;-85
2022/02/13 04:45:15;;;;;;;22.30;9.98;;;;;;;-1.97;95.05;102041.80;1737421;82;21275;-76
2022/02/13 04:48:21;;;;;;;16.37;9.63;;;;;;;-2.06;95.09;102040.31;1737211;82;21279;-76
2022/02/13 04:51:26;;;;;;;29.32;12.95;;;;;;;-2.09;95.34;102043.95;1737449;82;21350;-85
2022/02/13 04:54:32;;;;;;;27.17;13.08;;;;;;;-2.08;95.51;102051.53;1737534;82;21706;-85
2022/02/13 04:57:38;;;;;;;24.30;11.75;;;;;;;-2.04;95.74;102048.28;1736567;82;21334;-85
2022/02/13 05:00:43;;;;;;;27.85;12.82;;;;;;;-2.01;95.61;102061.13;1736265;82;21675;-85
2022/02/13 05:03:48;;;;;;;24.27;11.95;;;;;;;-2.02;95.64;102061.16;1736352;82;21240;-76
2022/02/13 05:06:55;;;;;;;25.50;10.88;;;;;;;-2.00;95.56;102063.34;1736728;82;21760;-84
2022/02/13 05:10:02;;;;;;;21.93;11.35;;;;;;;-2.01;95.58;102067.84;1737740;82;21197;-80
2022/02/13 05:13:08;;;;;;;16.27;9.53;;;;;;;-2.01;95.59;102066.97;1736771;82;21900;-75
2022/02/13 05:16:14;;;;;;;14.50;9.83;;;;;;;-2.01;95.67;102067.84;1736461;82;21856;-77
2022/02/13 05:19:19;;;;;;;22.17;10.72;;;;;;;-1.99;95.75;102072.67;1733643;82;21311;-85
2022/02/13 05:22:24;;;;;;;20.77;9.95;;;;;;;-1.97;95.90;102071.30;1696077;84;21368;-79
2022/02/13 05:25:28;;;;;;;16.52;10.50;;;;;;;-1.93;96.06;102078.28;1676744;83;21363;-85
2022/02/13 05:28:34;;;;;;;20.15;10.50;;;;;;;-1.88;96.20;102086.60;1732932;82;21221;-84
2022/02/13 05:31:39;;;;;;;17.07;9.33;;;;;;;-1.83;96.26;102084.63;1734379;82;21327;-76
2022/02/13 05:34:44;;;;;;;18.95;10.40;;;;;;;-1.78;96.37;102083.59;1734342;82;21809;-84
2022/02/13 05:37:51;;;;;;;17.98;10.28;;;;;;;-1.74;96.50;102083.44;1734355;82;21795;-84
2022/02/13 05:40:57;;;;;;;20.57;10.75;;;;;;;-1.72;96.61;102081.56;1765833;81;21303;-76
2022/02/13 05:44:03;;;;;;;19.57;10.23;;;;;;;-1.70;96.90;102089.55;1765980;81;21276;-76
2022/02/13 05:47:08;;;;;;;25.70;10.25;;;;;;;-1.67;97.30;102090.79;1765133;81;21832;-75
2022/02/13 05:50:14;;;;;;;25.50;11.28;;;;;;;-1.62;97.74;102090.16;1766101;81;21318;-84
2022/02/13 05:53:20;;;;;;;22.55;10.23;;;;;;;-1.57;98.19;102089.52;1764868;81;21338;-75
2022/02/13 05:56:25;;;;;;;15.95;10.00;;;;;;;-1.51;98.55;102090.63;1770677;81;21283;-77
2022/02/13 05:59:31;;;;;;;19.95;10.00;;;;;;;-1.42;98.84;102092.98;1769599;81;21213;-75
2022/02/13 06:02:36;;;;;;;14.78;8.75;;;;;;;-1.32;99.08;102101.13;1769362;81;21682;-84
2022/02/13 06:05:44;;;;;;;13.95;7.25;;;;;;;-1.22;99.13;102103.45;1734052;82;21474;-81
2022/02/13 06:08:49;;;;;;;17.00;9.00;;;;;;;-1.15;99.09;102106.33;1770828;81;21366;-85
2022/02/13 06:11:54;;;;;;;19.60;9.70;;;;;;;-1.08;99.15;102105.18;1734212;82;21299;-84
2022/02/13 06:14:59;;;;;;;18.67;9.78;;;;;;;-0.97;99.25;102108.79;1770696;81;21762;-85
2022/02/13 06:18:04;;;;;;;15.35;9.70;;;;;;;-0.90;99.11;102104.91;1732796;82;21363;-83
2022/02/13 06:21:10;;;;;;;19.65;9.48;;;;;;;-0.83;98.91;102104.63;1769738;81;21300;-76
2022/02/13 06:24:15;;;;;;;19.35;9.63;;;;;;;-0.78;98.47;102105.33;1731231;81;21275;-76
2022/02/13 06:27:20;;;;;;;18.15;8.80;;;;;;;-0.74;98.27;102111.47;1694122;84;21198;-76
2022/02/13 06:30:25;;;;;;;16.82;9.68;;;;;;;-0.70;98.14;102106.38;1694454;84;21284;-76
2022/02/13 06:33:31;;;;;;;20.35;9.25;;;;;;;-0.70;98.06;102104.16;1694472;84;21296;-84
2022/02/13 06:36:36;;;;;;;19.30;10.05;;;;;;;-0.69;98.15;102105.91;1694281;84;21198;-84
2022/02/13 06:39:41;;;;;;;17.65;8.35;;;;;;;-0.64;98.21;102118.70;1720892;82;21281;-80
2022/02/13 06:42:47;;;;;;;21.97;9.88;;;;;;;-0.57;98.29;102120.19;1739759;81;21356;-76
2022/02/13 06:45:54;;;;;;;17.85;8.58;;;;;;;-0.50;98.29;102125.74;1740780;82;21333;-76
2022/02/13 06:48:59;;;;;;;17.77;8.33;;;;;;;-0.41;98.19;102121.34;1740603;82;21924;-85
2022/02/13 06:52:04;;;;;;;16.37;8.78;;;;;;;-0.37;97.72;102129.70;1739277;81;21786;-84
2022/02/13 06:55:10;;;;;;;18.15;9.33;;;;;;;-0.38;97.21;102123.88;1691522;82;21279;-84
2022/02/13 06:58:14;;;;;;;15.75;8.18;;;;;;;-0.34;97.11;102117.45;1738067;82;21224;-76
2022/02/13 07:01:21;;;;;;;11.80;8.03;;;;;;;-0.26;97.16;102110.42;1739482;82;21357;-85
2022/02/13 07:04:26;;;;;;;17.60;8.70;;;;;;;-0.16;97.00;102123.02;1739329;82;21881;-77
2022/02/13 07:07:33;;;;;;;15.28;8.35;;;;;;;-0.13;96.73;102118.88;1738746;82;21351;-83
2022/02/13 07:10:38;;;;;;;14.75;8.93;;;;;;;-0.11;96.22;102117.85;1729775;82;21557;-84
2022/02/13 07:13:45;;;;;;;16.52;9.30;;;;;;;-0.08;95.92;102114.17;1728191;83;21786;-75
2022/02/13 07:16:51;;;;;;;18.52;9.95;;;;;;;0.00;96.22;102113.39;1727951;83;21719;-76
2022/02/13 07:19:56;;;;;;;18.42;9.53;;;;;;;0.10;95.48;102116.09;1728812;83;21319;-76
2022/02/13 07:23:02;;;;;;;15.13;9.28;;;;;;;0.15;94.94;102111.39;1728194;83;21236;-76
2022/02/13 07:26:08;;;;;;;23.30;10.78;;;;;;;0.20;94.79;102106.67;1728005;83;21797;-77
2022/02/13 07:29:15;;;;;;;21.50;10.30;;;;;;;0.30;94.49;102113.02;1727827;82;21171;-84
2022/02/13 07:32:19;;;;;;;14.00;8.58;;;;;;;0.40;94.17;102123.77;1728647;83;21181;-76
2022/02/13 07:35:24;;;;;;;14.40;8.53;;;;;;;0.52;94.09;102119.21;1714204;83;21845;-76
2022/02/13 07:38:30;;;;;;;16.52;9.93;;;;;;;0.57;93.51;102125.74;1728199;81;21351;-76
2022/02/13 07:41:35;;;;;;;17.42;8.83;;;;;;;0.63;93.17;102115.56;1693952;84;21327;-84
2022/02/13 07:44:42;;;;;;;13.55;8.70;;;;;;;0.73;92.84;102117.36;1694217;84;21283;-84
2022/02/13 07:47:48;;;;;;;17.50;9.33;;;;;;;0.85;92.81;102103.35;1693226;82;21253;-84
2022/02/13 07:50:52;;;;;;;13.00;7.83;;;;;;;0.94;91.80;102099.33;1693706;84;21328;-76
2022/02/13 07:53:58;;;;;;;16.02;8.40;;;;;;;0.98;91.35;102103.16;1699649;82;21277;-85
2022/02/13 07:57:04;;;;;;;18.05;8.35;;;;;;;1.02;90.69;102102.55;1717825;83;21728;-85
2022/02/13 08:00:10;;;;;;;17.62;8.15;;;;;;;1.06;89.79;102105.51;1718225;83;21941;-85
2022/02/13 08:03:15;;;;;;;13.60;7.65;;;;;;;1.13;89.35;102109.69;1716926;83;21810;-84
2022/02/13 08:06:21;;;;;;;15.25;7.60;;;;;;;1.21;88.66;102102.09;1717160;83;21328;-85
2022/02/13 08:09:26;;;;;;;13.85;7.55;;;;;;;1.25;88.05;102101.00;1697356;82;21816;-75
2022/02/13 08:12:32;;;;;;;11.85;7.00;;;;;;;1.35;88.13;102100.56;1738158;82;21737;-75
2022/02/13 08:15:38;;;;;;;17.30;7.33;;;;;;;1.45;87.27;102105.43;1739527;82;21298;-86
2022/02/13 08:18:46;;;;;;;13.30;6.33;;;;;;;1.55;86.31;102109.90;1737708;82;21765;-86
2022/02/13 08:21:52;;;;;;;11.05;7.30;;;;;;;1.65;85.89;102105.83;1739335;82;21369;-85
2022/02/13 08:24:57;;;;;;;11.55;6.85;;;;;;;1.72;85.37;102109.96;1723804;82;21290;-76
2022/02/13 08:28:03;;;;;;;12.95;6.35;;;;;;;1.85;84.99;102107.53;1713426;83;21358;-76
2022/02/13 08:31:09;;;;;;;12.50;6.25;;;;;;;1.91;83.83;102105.00;1713436;83;21823;-85
2022/02/13 08:34:15;;;;;;;11.10;6.08;;;;;;;1.93;83.12;102110.73;1713573;83;21349;-76
2022/02/13 08:37:15;;;;;;;14.35;6.12;;;;;;;1.92;82.48;102114.84;1713537;83;21338;-76
2022/02/13 08:40:06;;;;;;;9.75;5.78;;;;;;;1.98;82.01;102118.59;1729053;82;21334;-76
2022/02/13 08:43:13;;;;;;;10.88;6.25;;;;;;;2.10;81.90;102123.84;1733458;82;21350;-76
2022/02/13 08:46:19;;;;;;;11.93;6.30;;;;;;;2.21;81.01;102121.00;1733261;82;21928;-85
2022/02/13 08:49:25;;;;;;;9.90;5.58;;;;;;;2.29;80.13;102124.16;1735051;82;21284;-85
2022/02/13 08:52:30;;;;;;;11.80;5.60;;;;;;;2.30;78.89;102116.45;1734718;82;21181;-76
2022/02/13 08:55:37;;;;;;;10.18;4.47;;;;;;;2.29;78.14;102122.81;1734951;82;21280;-85
2022/02/13 08:58:42;;;;;;;7.90;4.47;;;;;;;2.38;77.26;102120.12;1735166;82;21728;-81
2022/02/13 09:01:48;;;;;;;6.45;3.35;;;;;;;2.43;76.51;102117.18;1734855;82;21256;-85
2022/02/13 09:04:55;;;;;;;7.00;4.10;;;;;;;2.43;73.49;102111.30;1735059;82;21888;-85
2022/02/13 09:08:01;;;;;;;7.80;3.90;;;;;;;2.40;73.18;102113.28;1733797;82;21233;-75
2022/02/13 09:11:06;;;;;;;7.25;3.47;;;;;;;2.41;72.62;102109.65;1734824;82;21611;-77
2022/02/13 09:14:12;;;;;;;5.03;3.20;;;;;;;2.45;71.69;102097.73;1734831;82;21209;-77
2022/02/13 09:17:18;;;;;;;10.20;3.98;;;;;;;2.48;70.39;102096.20;1734260;82;21307;-77
2022/02/13 09:20:23;;;;;;;9.13;3.27;;;;;;;2.48;70.17;102108.36;1734750;82;21335;-77
2022/02/13 09:23:29;;;;;;;11.35;3.65;;;;;;;2.46;69.81;102107.58;1732640;82;21307;-77
2022/02/13 09:26:36;;;;;;;8.03;3.65;;;;;;;2.50;69.85;102097.88;1696623;84;21303;-85
2022/02/13 09:29:41;;;;;;;7.47;3.58;;;;;;;2.60;68.22;102090.16;1701052;84;21324;-82
2022/02/13 09:32:47;;;;;;;5.05;2.62;;;;;;;2.66;67.20;102089.82;1765927;81;21315;-85
2022/02/13 09:35:52;;;;;;;6.20;3.08;;;;;;;2.68;67.03;102084.33;1766064;81;21362;-85
2022/02/13 09:38:59;;;;;;;5.45;2.77;;;;;;;2.64;66.03;102079.59;1757576;81;21312;-77
2022/02/13 09:42:04;;;;;;;5.30;2.55;;;;;;;2.64;66.41;102076.89;1734834;82;21299;-76
2022/02/13 09:45:10;;;;;;;4.05;2.27;;;;;;;2.70;65.92;102077.91;1734872;82;21209;-84
2022/02/13 09:48:22;;;;;;;4.15;2.20;;;;;;;2.68;64.13;102077.57;1734758;82;21319;-84
2022/02/13 09:51:26;;;;;;;4.97;2.12;;;;;;;2.67;62.64;102072.65;1734581;82;21314;-75
2022/02/13 09:54:31;;;;;;;5.87;2.20;;;;;;;2.71;63.11;102067.48;1753152;81;21279;-82
2022/02/13 10:01:07;;;;;;;4.50;2.30;;;;;;;2.71;60.76;102058.02;1770947;79;21288;-75
2022/02/13 10:04:13;;;;;;;5.10;2.40;;;;;;;2.73;60.41;102056.58;1770875;81;21269;-83
2022/02/13 10:07:25;;;;;;;3.35;2.08;;;;;;;2.76;59.51;102062.70;1770244;80;21268;-85
2022/02/13 10:10:30;;;;;;;4.72;2.20;;;;;;;2.81;58.40;102059.74;1737312;81;21279;-84
2022/02/13 10:13:39;;;;;;;4.00;2.10;;;;;;;2.87;58.35;102055.83;1694297;82;21161;-84
2022/02/13 10:16:55;;;;;;;2.83;1.55;;;;;;;2.91;58.75;102046.11;1714529;82;21311;-76
2022/02/13 10:20:02;;;;;;;5.58;1.80;;;;;;;2.96;56.59;102039.09;1734301;82;21738;-84
2022/02/13 10:23:23;;;;;;;4.67;2.20;;;;;;;2.95;56.48;102034.66;1734427;82;21307;-85
2022/02/13 10:26:28;;;;;;;3.60;1.98;;;;;;;2.98;58.01;102034.50;1734993;82;21307;-84
2022/02/13 10:29:35;;;;;;;5.10;2.17;;;;;;;3.07;58.95;102042.97;1734838;82;21347;-81
2022/02/13 10:32:43;;;;;;;6.05;2.45;;;;;;;3.12;57.10;102036.44;1734735;82;21229;-84
2022/02/13 10:35:49;;;;;;;4.72;2.00;;;;;;;3.15;57.03;102036.23;1696613;82;21287;-76
2022/02/13 10:38:55;;;;;;;2.90;1.98;;;;;;;3.23;57.40;102024.52;1733608;79;21331;-76
2022/02/13 10:42:01;;;;;;;4.85;2.20;;;;;;;3.25;56.16;102011.31;1733542;82;21838;-75
2022/02/13 10:45:29;;;;;;;2.87;1.45;;;;;;;3.32;55.17;102014.53;1734741;82;21685;-84
2022/02/13 10:48:35;;;;;;;3.15;1.70;;;;;;;3.31;54.82;102020.91;1734762;82;21161;-80
2022/02/13 10:51:41;;;;;;;3.70;1.27;;;;;;;3.28;54.05;102020.58;1734399;82;21311;-84
2022/02/13 10:54:48;;;;;;;5.37;2.30;;;;;;;3.28;53.28;102019.72;1756469;79;21165;-84
2022/02/13 10:57:54;;;;;;;3.75;1.80;;;;;;;3.26;54.19;102013.53;1732602;82;21310;-76
2022/02/13 11:01:03;;;;;;;5.72;2.15;;;;;;;3.31;54.75;102007.38;1770419;81;21177;-85
2022/02/13 11:04:08;;;;;;;5.40;2.50;;;;;;;3.35;55.14;101996.78;1734307;82;21137;-76
2022/02/13 11:07:14;;;;;;;3.10;1.85;;;;;;;3.40;55.87;101996.03;1770905;81;21825;-85
2022/02/13 11:10:38;;;;;;;4.58;1.77;;;;;;;3.42;53.10;101999.50;1734190;82;21141;-77
2022/02/13 11:13:46;;;;;;;4.15;1.57;;;;;;;3.42;51.34;101993.22;1770749;81;21291;-84
2022/02/13 11:16:53;;;;;;;4.53;1.90;;;;;;;3.40;51.38;101991.97;1733531;82;21251;-76
2022/02/13 11:19:59;;;;;;;2.37;1.40;;;;;;;3.44;52.06;101989.97;1717329;82;21267;-85
2022/02/13 11:23:24;;;;;;;6.78;1.80;;;;;;;3.49;52.83;101991.92;1734373;82;21306;-85
2022/02/13 11:26:47;;;;;;;3.65;1.98;;;;;;;3.51;52.37;101977.33;1770608;79;21319;-84
2022/02/13 11:30:01;;;;;;;3.83;1.77;;;;;;;3.51;52.06;101978.67;1733923;82;21480;-75
2022/02/13 11:33:07;;;;;;;3.25;1.92;;;;;;;3.55;52.14;101980.24;1770803;81;21225;-76
2022/02/13 11:36:14;;;;;;;2.67;1.50;;;;;;;3.58;52.37;101971.09;1733952;82;21291;-75
2022/02/13 11:39:19;;;;;;;5.12;1.82;;;;;;;3.59;51.78;101963.36;1770875;79;21315;-83
2022/02/13 11:42:26;;;;;;;3.75;1.85;;;;;;;3.62;52.05;101966.34;1761795;81;21280;-84
2022/02/13 11:45:37;;;;;;;3.83;1.77;;;;;;;3.66;51.69;101959.78;1734082;82;21279;-80
2022/02/13 11:48:45;;;;;;;4.95;2.10;;;;;;;3.69;51.51;101952.36;1770841;81;21162;-83
2022/02/13 11:51:59;;;;;;;3.40;1.52;;;;;;;3.66;51.82;101948.48;1733681;82;21354;-84
2022/02/13 11:55:05;;;;;;;2.77;2.05;;;;;;;3.68;51.72;101947.92;1770837;81;21578;-75
2022/02/13 11:58:16;;;;;;;3.15;1.90;;;;;;;3.70;51.44;101941.05;1733866;82;21327;-84
2022/02/13 12:01:48;;;;;;;4.08;1.90;;;;;;;3.68;49.92;101939.80;1734165;82;21678;-75
2022/02/13 12:05:17;;;;;;;4.22;2.33;;;;;;;3.66;49.82;101940.36;1734150;82;21315;-83
2022/02/13 12:08:27;;;;;;;2.87;1.37;;;;;;;3.66;50.95;101934.95;1771184;81;21300;-83
2022/02/13 12:11:37;;;;;;;4.35;2.05;;;;;;;3.66;50.96;101934.95;1734198;82;21180;-83
2022/02/13 12:14:43;;;;;;;3.90;2.10;;;;;;;3.64;50.45;101934.19;1770935;81;21295;-83
2022/02/13 12:17:51;;;;;;;3.15;1.98;;;;;;;3.66;50.36;101934.08;1762434;81;21299;-75
2022/02/13 12:21:00;;;;;;;3.45;1.92;;;;;;;3.67;50.56;101929.95;1734171;82;21824;-75
2022/02/13 12:24:11;;;;;;;3.90;1.95;;;;;;;3.70;50.65;101928.39;1762827;81;21249;-75
2022/02/13 12:27:17;;;;;;;5.62;2.00;;;;;;;3.72;50.94;101924.26;1738131;81;21298;-75
2022/02/13 12:30:22;;;;;;;2.90;1.67;;;;;;;3.71;49.75;101926.06;1741983;82;21204;-75
2022/02/13 12:33:31;;;;;;;3.62;1.92;;;;;;;3.71;49.09;101928.77;1740718;82;21821;-84
2022/02/13 12:36:37;;;;;;;2.65;1.65;;;;;;;3.70;49.49;101927.52;1741887;82;21311;-84
2022/02/13 12:39:44;;;;;;;3.58;2.12;;;;;;;3.69;49.90;101923.95;1734749;81;21868;-83
2022/02/13 12:42:56;;;;;;;3.33;2.00;;;;;;;3.68;49.79;101927.63;1729793;83;21307;-84
2022/02/13 12:46:04;;;;;;;4.35;2.37;;;;;;;3.68;50.49;101922.21;1729824;83;21260;-84
2022/02/13 12:49:11;;;;;;;3.58;1.62;;;;;;;3.71;51.34;101920.66;1729942;83;21213;-84
2022/02/13 12:52:16;;;;;;;2.40;1.77;;;;;;;3.70;51.64;101918.05;1709481;83;21845;-84
2022/02/13 12:55:25;;;;;;;4.28;1.80;;;;;;;3.68;51.75;101914.09;1730074;81;21191;-76
2022/02/13 12:58:30;;;;;;;3.17;1.80;;;;;;;3.68;52.14;101919.50;1730137;83;21271;-84
2022/02/13 13:01:40;;;;;;;2.27;1.75;;;;;;;3.67;52.07;101916.42;1730276;83;21295;-84
2022/02/13 13:04:45;;;;;;;4.40;2.08;;;;;;;3.65;52.26;101920.16;1730060;83;21295;-84
2022/02/13 13:07:56;;;;;;;4.00;2.22;;;;;;;3.61;52.51;101907.78;1729132;83;21864;-75
2022/02/13 13:11:11;;;;;;;3.92;2.05;;;;;;;3.59;52.76;101909.23;1730078;83;21304;-76
2022/02/13 13:14:20;;;;;;;4.47;2.40;;;;;;;3.59;53.30;101905.17;1729993;83;21276;-75
2022/02/13 13:17:24;;;;;;;5.10;2.08;;;;;;;3.59;53.16;101901.12;1729907;83;21205;-84
2022/02/13 13:20:35;;;;;;;3.05;1.90;;;;;;;3.60;52.79;101902.86;1729970;83;21291;-76
2022/02/13 13:23:39;;;;;;;5.17;1.98;;;;;;;3.59;52.45;101895.70;1729921;81;21296;-75
2022/02/13 13:26:58;;;;;;;5.50;2.00;;;;;;;3.60;51.85;101900.15;1729900;83;21284;-76
2022/02/13 13:30:03;;;;;;;4.45;2.05;;;;;;;3.61;51.77;101896.47;1747787;82;21821;-84
2022/02/13 13:33:11;;;;;;;6.33;2.37;;;;;;;3.61;51.85;101891.06;1746696;82;21311;-85
2022/02/13 13:36:17;;;;;;;4.97;2.30;;;;;;;3.59;51.86;101893.00;1747959;82;21164;-76
2022/02/13 13:39:39;;;;;;;4.37;2.02;;;;;;;3.57;51.98;101890.85;1747924;81;21816;-84
2022/02/13 13:42:54;;;;;;;7.03;2.20;;;;;;;3.55;52.29;101887.37;1729154;82;21663;-77
2022/02/13 13:45:59;;;;;;;3.92;1.98;;;;;;;3.54;52.17;101878.88;1748247;82;21172;-76
2022/02/13 13:49:04;;;;;;;2.90;1.80;;;;;;;3.50;52.01;101884.08;1748257;82;21283;-85
2022/02/13 13:52:09;;;;;;;3.83;2.05;;;;;;;3.47;52.01;101888.31;1748091;82;21931;-85
2022/02/13 13:55:15;;;;;;;4.12;1.90;;;;;;;3.45;52.09;101882.14;1748023;81;21177;-76
2022/02/13 13:58:22;;;;;;;3.92;1.98;;;;;;;3.44;52.00;101872.29;1746513;82;21247;-84
2022/02/13 14:01:28;;;;;;;4.37;2.00;;;;;;;3.43;52.15;101873.23;1747697;82;21294;-77
2022/02/13 14:04:32;;;;;;;3.22;1.65;;;;;;;3.41;52.23;101869.27;1746539;82;21306;-84
2022/02/13 14:07:37;;;;;;;4.87;1.98;;;;;;;3.37;52.13;101868.20;1746891;82;21228;-77
2022/02/13 14:10:44;;;;;;;3.58;1.75;;;;;;;3.35;52.26;101864.73;1747795;81;21298;-84
2022/02/13 14:13:49;;;;;;;3.90;2.02;;;;;;;3.31;52.37;101863.55;1747566;82;21283;-76
2022/02/13 14:16:55;;;;;;;7.95;2.10;;;;;;;3.26;52.58;101867.01;1747501;82;21311;-76
2022/02/13 14:20:02;;;;;;;4.55;2.00;;;;;;;3.23;52.69;101860.42;1748114;82;21200;-84
2022/02/13 14:23:08;;;;;;;3.22;1.70;;;;;;;3.20;52.89;101852.97;1746880;82;21291;-84
2022/02/13 14:26:15;;;;;;;4.35;1.95;;;;;;;3.16;53.05;101853.66;1748018;82;21806;-77